Sao Joaquim da Barra, Brazil
Current Conditions -  °F | °C
As of 10:00 AM on Wednesday 26 Nov 2014 (Local Time) from SBRP Reporting Station
Broken Clouds Broken Clouds  
Wind Chill: 73°   Ceiling: 1300
Heat Index: 73°   Visibility: 6mi
Dew Point: 68°   Wind: 13mph
Humidity: 83%   Direction: 330°NNW
Pressure: 29.88"   Gusts: NA
Location:  20.58°S, 47.86°W
Report Text: SBRP 261200Z 33011KT 9999 BKN013 BKN020 23/20 Q1012
Loading
Personal Weather Stations






























Interactive Weather Map New forecast layout! Learn more

10-Day Weather Forecast

Advertisements
Track Severe Weather on mobile